createdAt,value
2018-01-15T00:00:27.319Z,27.50
2018-01-15T00:01:34.059Z,29.10
2018-01-15T00:02:41.111Z,28.80
2018-01-15T00:03:47.857Z,28.40
2018-01-15T00:04:54.556Z,26.70
2018-01-15T00:06:01.404Z,29.40
2018-01-15T00:07:08.132Z,32.40
2018-01-15T00:08:14.859Z,30.00
2018-01-15T00:09:21.604Z,28.40
2018-01-15T00:10:28.311Z,31.20
2018-01-15T00:11:35.016Z,28.70
2018-01-15T00:12:41.851Z,26.60
2018-01-15T00:13:48.680Z,27.10
2018-01-15T00:14:55.443Z,25.10
2018-01-15T00:16:02.181Z,25.70
2018-01-15T00:17:08.988Z,25.50
2018-01-15T00:18:15.752Z,27.00
2018-01-15T00:19:22.476Z,29.50
2018-01-15T00:20:29.195Z,30.90
2018-01-15T00:21:35.923Z,30.90
2018-01-15T00:22:42.792Z,30.00
2018-01-15T00:23:49.547Z,30.30
2018-01-15T00:24:56.286Z,26.90
2018-01-15T00:26:03.035Z,27.80
2018-01-15T00:27:09.736Z,31.00
2018-01-15T00:28:16.576Z,29.60
2018-01-15T00:29:23.303Z,26.70
2018-01-15T00:30:30.033Z,30.10
2018-01-15T00:31:36.806Z,30.80
2018-01-15T00:32:43.518Z,30.60
2018-01-15T00:33:50.547Z,31.20
2018-01-15T00:34:57.295Z,27.50
2018-01-15T00:36:04.015Z,34.60
2018-01-15T00:37:10.847Z,27.50
2018-01-15T00:38:17.579Z,30.80
2018-01-15T00:39:24.327Z,26.90
2018-01-15T00:40:31.052Z,29.40
2018-01-15T00:41:37.863Z,28.40
2018-01-15T00:42:44.648Z,25.70
2018-01-15T00:43:51.354Z,32.10
2018-01-15T00:44:58.100Z,29.70
2018-01-15T00:46:04.851Z,29.60
2018-01-15T00:47:11.563Z,29.20
2018-01-15T00:48:18.280Z,32.00
2018-01-15T00:49:24.963Z,30.20
2018-01-15T00:50:31.795Z,31.50
2018-01-15T00:51:38.492Z,29.70
2018-01-15T00:52:45.202Z,33.30
2018-01-15T00:53:51.947Z,33.80
2018-01-15T00:54:58.685Z,28.90
2018-01-15T00:56:05.420Z,27.80
2018-01-15T00:57:12.224Z,26.00
2018-01-15T00:58:18.958Z,25.50
2018-01-15T00:59:25.673Z,30.50
2018-01-15T01:00:32.679Z,26.60
2018-01-15T01:01:39.391Z,31.60
2018-01-15T01:02:46.103Z,31.00
2018-01-15T01:03:52.839Z,28.80
2018-01-15T01:04:59.539Z,30.20
2018-01-15T01:06:06.300Z,32.10
2018-01-15T01:07:12.994Z,29.20
2018-01-15T01:08:19.787Z,34.70
2018-01-15T01:09:26.475Z,31.30
2018-01-15T01:10:33.183Z,27.60
2018-01-15T01:11:39.912Z,28.80
2018-01-15T01:12:46.644Z,29.10
2018-01-15T01:13:53.338Z,32.50
2018-01-15T01:15:00.058Z,28.50
2018-01-15T01:16:06.898Z,30.50
2018-01-15T01:17:13.699Z,31.30
2018-01-15T01:18:20.440Z,35.20
2018-01-15T01:19:27.132Z,31.80
2018-01-15T01:20:33.832Z,33.60
2018-01-15T01:21:40.535Z,31.70
2018-01-15T01:22:47.327Z,33.50
2018-01-15T01:23:54.019Z,32.60
2018-01-15T01:25:00.752Z,33.90
2018-01-15T01:26:07.520Z,32.30
2018-01-15T01:27:14.241Z,32.40
2018-01-15T01:28:20.959Z,37.80
2018-01-15T01:29:27.748Z,32.80
2018-01-15T01:30:34.438Z,31.60
2018-01-15T01:31:41.178Z,33.20
2018-01-15T01:32:47.894Z,32.30
2018-01-15T01:33:54.624Z,31.50
2018-01-15T01:35:01.360Z,30.90
2018-01-15T01:36:08.139Z,29.40
2018-01-15T01:37:14.847Z,30.90
2018-01-15T01:38:21.567Z,31.70
2018-01-15T01:39:28.260Z,31.90
2018-01-15T01:40:34.983Z,33.90
2018-01-15T01:41:41.711Z,31.30
2018-01-15T01:42:48.610Z,28.60
2018-01-15T01:43:55.226Z,31.80
2018-01-15T01:45:02.059Z,28.80
2018-01-15T01:46:09.091Z,31.60
2018-01-15T01:47:15.796Z,31.20
2018-01-15T01:48:22.539Z,36.80
2018-01-15T01:49:29.244Z,28.00
2018-01-15T01:50:35.952Z,30.90
2018-01-15T01:51:42.784Z,34.00
2018-01-15T01:52:49.520Z,29.60
2018-01-15T01:53:56.283Z,30.10
2018-01-15T01:55:02.995Z,32.10
2018-01-15T01:56:09.802Z,34.80
2018-01-15T01:57:16.780Z,32.80
2018-01-15T01:58:23.474Z,35.40
2018-01-15T01:59:30.196Z,32.70
2018-01-15T02:00:36.952Z,27.40
2018-01-15T02:01:43.647Z,29.40
2018-01-15T02:02:50.360Z,29.40
2018-01-15T02:03:57.076Z,34.10
2018-01-15T02:05:03.836Z,29.20
2018-01-15T02:06:10.639Z,28.20
2018-01-15T02:07:17.323Z,29.20
2018-01-15T02:08:24.032Z,27.60
2018-01-15T02:09:30.762Z,28.30
2018-01-15T02:10:37.498Z,30.80
2018-01-15T02:11:44.203Z,32.20
2018-01-15T02:12:51.003Z,27.60
2018-01-15T02:13:57.724Z,30.70
2018-01-15T02:15:04.642Z,29.20
2018-01-15T02:16:11.400Z,34.60
2018-01-15T02:17:18.093Z,32.50
2018-01-15T02:18:25.179Z,27.10
2018-01-15T02:19:31.895Z,30.50
2018-01-15T02:20:38.626Z,29.50
2018-01-15T02:21:45.323Z,30.80
2018-01-15T02:22:52.036Z,31.80
2018-01-15T02:23:58.727Z,31.50
2018-01-15T02:25:05.499Z,29.30
2018-01-15T02:26:12.241Z,30.20
2018-01-15T02:27:19.022Z,30.40
2018-01-15T02:28:25.936Z,33.40
2018-01-15T02:29:32.636Z,30.50
2018-01-15T02:30:39.363Z,29.50
2018-01-15T02:31:46.099Z,31.60
2018-01-15T02:32:52.812Z,24.90
2018-01-15T02:33:59.524Z,28.20
2018-01-15T02:35:06.263Z,31.90
2018-01-15T02:36:13.130Z,29.30
2018-01-15T02:37:19.847Z,29.70
2018-01-15T02:38:26.622Z,30.80
2018-01-15T02:39:33.332Z,33.80
2018-01-15T02:40:40.059Z,29.70
2018-01-15T02:41:46.819Z,31.40
2018-01-15T02:42:53.536Z,29.80
2018-01-15T02:44:00.388Z,32.10
2018-01-15T02:45:07.102Z,24.80
2018-01-15T02:46:13.844Z,35.80
2018-01-15T02:47:20.676Z,28.80
2018-01-15T02:48:27.500Z,26.60
2018-01-15T02:49:34.183Z,29.70
2018-01-15T02:50:40.880Z,29.60
2018-01-15T02:51:47.623Z,27.70
2018-01-15T02:52:54.367Z,28.60
2018-01-15T02:54:01.071Z,33.30
2018-01-15T02:55:07.896Z,28.90
2018-01-15T02:56:14.602Z,25.50
2018-01-15T02:57:21.316Z,30.60
2018-01-15T02:58:28.031Z,30.10
2018-01-15T02:59:34.733Z,29.00
2018-01-15T03:00:41.453Z,33.60
2018-01-15T03:01:48.143Z,32.20
2018-01-15T03:02:54.848Z,29.90
2018-01-15T03:04:01.680Z,26.70
2018-01-15T03:05:08.372Z,27.50
2018-01-15T03:06:15.083Z,32.10
2018-01-15T03:07:21.800Z,29.20
2018-01-15T03:08:28.687Z,31.20
2018-01-15T03:09:35.486Z,31.20
2018-01-15T03:10:42.214Z,30.00
2018-01-15T03:11:48.931Z,28.30
2018-01-15T03:12:55.652Z,28.40
2018-01-15T03:14:02.486Z,27.20
2018-01-15T03:15:09.267Z,27.60
2018-01-15T03:16:15.973Z,32.70
2018-01-15T03:17:22.686Z,32.40
2018-01-15T03:18:29.421Z,25.90
2018-01-15T03:19:36.180Z,29.30
2018-01-15T03:20:42.879Z,24.20
2018-01-15T03:21:49.691Z,32.30
2018-01-15T03:22:56.414Z,28.30
2018-01-15T03:24:03.143Z,29.30
2018-01-15T03:25:09.874Z,26.70
2018-01-15T03:26:16.615Z,27.40
2018-01-15T03:27:23.296Z,28.60
2018-01-15T03:28:30.115Z,28.30
2018-01-15T03:29:37.019Z,32.90
2018-01-15T03:30:43.932Z,28.70
2018-01-15T03:31:50.681Z,29.90
2018-01-15T03:32:57.407Z,28.30
2018-01-15T03:34:04.101Z,26.90
2018-01-15T03:35:10.851Z,30.40
2018-01-15T03:36:17.535Z,27.90
2018-01-15T03:37:24.263Z,27.50
2018-01-15T03:38:31.145Z,27.30
2018-01-15T03:39:37.859Z,28.50
2018-01-15T03:40:44.601Z,27.80
2018-01-15T03:41:51.296Z,30.00
2018-01-15T03:42:57.993Z,27.50
2018-01-15T03:44:04.678Z,32.80
2018-01-15T03:45:11.499Z,30.00
2018-01-15T03:46:18.212Z,27.10
2018-01-15T03:47:24.960Z,28.20
2018-01-15T03:48:31.671Z,27.40
2018-01-15T03:49:38.359Z,29.90
2018-01-15T03:50:45.132Z,28.30
2018-01-15T03:51:51.898Z,28.60
2018-01-15T03:52:58.579Z,32.00
2018-01-15T03:54:05.291Z,30.60
2018-01-15T03:55:11.987Z,30.30
2018-01-15T03:56:18.732Z,28.40
2018-01-15T03:57:25.428Z,29.30
2018-01-15T03:58:32.166Z,29.30
2018-01-15T03:59:38.842Z,33.40
2018-01-15T04:00:45.836Z,30.80
2018-01-15T04:01:52.536Z,30.20
2018-01-15T04:02:59.224Z,29.40
2018-01-15T04:04:05.923Z,27.80
2018-01-15T04:05:12.632Z,24.00
2018-01-15T04:06:19.455Z,28.30
2018-01-15T04:07:26.169Z,25.90
2018-01-15T04:08:32.875Z,27.10
2018-01-15T04:09:39.603Z,27.50
2018-01-15T04:10:46.295Z,25.40
2018-01-15T04:11:53.015Z,26.20
2018-01-15T04:12:59.716Z,24.80
2018-01-15T04:14:06.504Z,26.60
2018-01-15T04:15:13.199Z,30.20
2018-01-15T04:16:19.918Z,32.30
2018-01-15T04:17:26.687Z,28.50
2018-01-15T04:18:33.438Z,28.00
2018-01-15T04:19:40.151Z,25.60
2018-01-15T04:20:46.835Z,29.20
2018-01-15T04:21:53.731Z,24.90
2018-01-15T04:23:00.479Z,28.10
2018-01-15T04:24:07.223Z,26.60
2018-01-15T04:25:13.951Z,29.20
2018-01-15T04:26:20.768Z,28.20
2018-01-15T04:27:27.606Z,26.00
2018-01-15T04:28:34.359Z,30.30
2018-01-15T04:29:41.073Z,25.20
2018-01-15T04:30:48.203Z,26.90
2018-01-15T04:31:54.906Z,24.70
2018-01-15T04:33:01.724Z,26.30
2018-01-15T04:34:08.531Z,23.90
2018-01-15T04:35:15.231Z,24.90
2018-01-15T04:36:21.948Z,24.40
2018-01-15T04:37:28.837Z,24.10
2018-01-15T04:38:35.620Z,30.30
2018-01-15T04:39:42.304Z,29.50
2018-01-15T04:40:49.017Z,32.20
2018-01-15T04:41:55.731Z,32.50
2018-01-15T04:43:02.434Z,27.40
2018-01-15T04:44:09.147Z,29.90
2018-01-15T04:45:15.935Z,25.20
2018-01-15T04:46:22.632Z,26.50
2018-01-15T04:47:29.350Z,26.20
2018-01-15T04:48:36.114Z,27.30
2018-01-15T04:49:42.804Z,26.30
2018-01-15T04:50:49.514Z,27.50
2018-01-15T04:51:56.343Z,26.30
2018-01-15T04:53:03.043Z,29.70
2018-01-15T04:54:09.751Z,30.70
2018-01-15T04:55:16.476Z,31.50
2018-01-15T04:56:23.199Z,28.70
2018-01-15T04:57:29.882Z,30.30
2018-01-15T04:58:36.599Z,32.70
2018-01-15T04:59:43.457Z,30.80
2018-01-15T05:00:50.166Z,33.10
2018-01-15T05:01:56.871Z,32.70
2018-01-15T05:03:03.587Z,26.30
2018-01-15T05:04:10.656Z,30.40
2018-01-15T05:05:17.390Z,29.80
2018-01-15T05:06:24.182Z,32.10
2018-01-15T05:07:30.875Z,31.80
2018-01-15T05:08:37.680Z,33.70
2018-01-15T05:09:44.362Z,31.90
2018-01-15T05:10:51.043Z,31.80
2018-01-15T05:11:57.738Z,29.90
2018-01-15T05:13:04.450Z,32.60
2018-01-15T05:14:11.150Z,32.60
2018-01-15T05:15:17.883Z,38.70
2018-01-15T05:16:24.564Z,29.10
2018-01-15T05:17:31.260Z,32.70
2018-01-15T05:18:37.927Z,31.80
2018-01-15T05:19:44.747Z,34.20
2018-01-15T05:20:51.494Z,38.00
2018-01-15T05:21:58.435Z,31.30
2018-01-15T05:23:05.218Z,34.80
2018-01-15T05:24:11.907Z,33.00
2018-01-15T05:25:18.815Z,32.60
2018-01-15T05:26:25.494Z,32.10
2018-01-15T05:27:32.321Z,36.80
2018-01-15T05:28:39.019Z,34.30
2018-01-15T05:29:45.700Z,36.90
2018-01-15T05:30:52.451Z,34.30
2018-01-15T05:31:59.196Z,38.00
2018-01-15T05:33:05.895Z,33.10
2018-01-15T05:34:12.579Z,36.60
2018-01-15T05:35:19.256Z,39.20
2018-01-15T05:36:26.082Z,36.50
2018-01-15T05:37:32.804Z,34.80
2018-01-15T05:38:39.508Z,33.80
2018-01-15T05:39:46.244Z,32.50
2018-01-15T05:40:52.950Z,35.20
2018-01-15T05:41:59.659Z,38.80
2018-01-15T05:43:06.336Z,32.20
2018-01-15T05:44:13.041Z,35.20
2018-01-15T05:45:19.947Z,34.90
2018-01-15T05:46:26.664Z,35.60
2018-01-15T05:47:33.375Z,35.20
2018-01-15T05:48:40.056Z,37.10
2018-01-15T05:49:46.767Z,33.90
2018-01-15T05:50:53.499Z,35.60
2018-01-15T05:52:00.223Z,35.60
2018-01-15T05:53:07.035Z,32.10
2018-01-15T05:54:13.794Z,37.40
2018-01-15T05:55:20.568Z,35.30
2018-01-15T05:56:27.374Z,35.20
2018-01-15T05:57:34.163Z,35.40
2018-01-15T05:58:40.943Z,33.50
2018-01-15T05:59:47.688Z,39.60
2018-01-15T06:00:54.431Z,35.40
2018-01-15T06:02:01.326Z,35.20
2018-01-15T06:03:08.021Z,37.10
2018-01-15T06:04:14.777Z,37.20
2018-01-15T06:05:21.553Z,36.90
2018-01-15T06:06:28.266Z,36.20
2018-01-15T06:07:35.078Z,38.10
2018-01-15T06:08:41.802Z,34.90
2018-01-15T06:09:48.520Z,35.10
2018-01-15T06:10:55.225Z,38.40
2018-01-15T06:12:01.948Z,44.40
2018-01-15T06:13:08.680Z,35.80
2018-01-15T06:14:15.508Z,32.30
2018-01-15T06:15:22.204Z,35.10
2018-01-15T06:16:28.892Z,33.80
2018-01-15T06:17:35.600Z,36.90
2018-01-15T06:18:42.320Z,34.20
2018-01-15T06:19:49.042Z,34.90
2018-01-15T06:20:55.727Z,37.50
2018-01-15T06:22:02.455Z,39.80
2018-01-15T06:23:09.276Z,35.60
2018-01-15T06:24:16.000Z,37.80
2018-01-15T06:25:22.727Z,34.80
2018-01-15T06:26:29.415Z,35.80
2018-01-15T06:27:36.137Z,36.10
2018-01-15T06:28:42.826Z,34.50
2018-01-15T06:29:49.559Z,33.10
2018-01-15T06:30:56.391Z,36.50
2018-01-15T06:32:03.086Z,35.50
2018-01-15T06:33:09.842Z,34.30
2018-01-15T06:34:16.566Z,36.10
2018-01-15T06:35:23.272Z,34.70
2018-01-15T06:36:29.964Z,33.90
2018-01-15T06:37:36.660Z,38.50
2018-01-15T06:38:43.375Z,32.50
2018-01-15T06:39:50.216Z,36.30
2018-01-15T06:40:56.968Z,34.00
2018-01-15T06:42:03.789Z,38.20
2018-01-15T06:43:10.476Z,39.50
2018-01-15T06:44:17.168Z,35.40
2018-01-15T06:45:23.981Z,36.50
2018-01-15T06:46:30.668Z,31.40
2018-01-15T06:47:37.379Z,33.90
2018-01-15T06:48:44.100Z,36.90
2018-01-15T06:49:50.788Z,36.00
2018-01-15T06:50:57.520Z,34.30
2018-01-15T06:52:04.195Z,40.50
2018-01-15T06:53:10.911Z,39.00
2018-01-15T06:54:17.996Z,34.80
2018-01-15T06:55:24.734Z,40.80
2018-01-15T06:56:31.402Z,38.40
2018-01-15T06:57:38.214Z,34.90
2018-01-15T06:58:44.988Z,36.20
2018-01-15T06:59:52.052Z,34.70
2018-01-15T07:00:58.769Z,34.50
2018-01-15T07:02:05.539Z,38.40
2018-01-15T07:03:12.272Z,36.30
2018-01-15T07:04:18.961Z,37.40
2018-01-15T07:05:25.644Z,37.80
2018-01-15T07:06:32.355Z,37.40
2018-01-15T07:07:39.164Z,31.90
2018-01-15T07:08:45.868Z,37.20
2018-01-15T07:09:52.559Z,30.10
2018-01-15T07:10:59.443Z,37.80
2018-01-15T07:12:06.172Z,36.20
2018-01-15T07:13:12.959Z,32.80
2018-01-15T07:14:19.639Z,35.30
2018-01-15T07:15:26.334Z,32.20
2018-01-15T07:16:33.031Z,34.70
2018-01-15T07:17:39.751Z,30.40
2018-01-15T07:18:46.480Z,39.70
2018-01-15T07:19:53.191Z,35.80
2018-01-15T07:20:59.903Z,31.40
2018-01-15T07:22:06.612Z,39.40
2018-01-15T07:23:13.379Z,37.00
2018-01-15T07:24:20.120Z,35.40
2018-01-15T07:25:26.856Z,35.10
2018-01-15T07:26:33.539Z,36.60
2018-01-15T07:27:40.279Z,35.80
2018-01-15T07:28:46.992Z,34.30
2018-01-15T07:29:53.795Z,33.30
2018-01-15T07:31:00.490Z,35.60
2018-01-15T07:32:07.292Z,35.50
2018-01-15T07:33:13.987Z,34.70
2018-01-15T07:34:20.731Z,34.20
2018-01-15T07:35:27.415Z,34.80
2018-01-15T07:36:34.127Z,37.90
2018-01-15T07:37:40.846Z,39.10
2018-01-15T07:38:47.603Z,37.70
2018-01-15T07:39:54.426Z,35.70
2018-01-15T07:41:01.188Z,34.80
2018-01-15T07:42:07.912Z,31.90
2018-01-15T07:43:14.614Z,32.90
2018-01-15T07:44:21.331Z,33.30
2018-01-15T07:45:28.015Z,33.60
2018-01-15T07:46:34.712Z,36.80
2018-01-15T07:47:41.402Z,37.10
2018-01-15T07:48:48.115Z,35.10
2018-01-15T07:49:54.907Z,35.70
2018-01-15T07:51:01.599Z,33.20
2018-01-15T07:52:08.330Z,36.60
2018-01-15T07:53:15.036Z,37.60
2018-01-15T07:54:21.766Z,36.80
2018-01-15T07:55:28.503Z,37.80
2018-01-15T07:56:35.187Z,38.60
2018-01-15T07:57:41.972Z,36.60
2018-01-15T07:58:48.686Z,39.60
2018-01-15T07:59:55.376Z,38.10
2018-01-15T08:01:02.164Z,37.70
2018-01-15T08:02:08.892Z,36.90
2018-01-15T08:03:15.576Z,36.00
2018-01-15T08:04:22.447Z,37.20
2018-01-15T08:05:29.123Z,36.90
2018-01-15T08:06:35.787Z,36.70
2018-01-15T08:07:42.952Z,34.50
2018-01-15T08:08:49.615Z,32.70
2018-01-15T08:09:56.320Z,38.00
2018-01-15T08:11:03.140Z,35.40
2018-01-15T08:12:09.824Z,33.90
2018-01-15T08:13:16.522Z,37.00
2018-01-15T08:14:23.203Z,40.30
2018-01-15T08:15:30.015Z,37.40
2018-01-15T08:16:36.680Z,34.20
2018-01-15T08:17:43.399Z,36.80
2018-01-15T08:18:50.097Z,37.00
2018-01-15T08:19:57.044Z,34.50
2018-01-15T08:21:03.815Z,36.60
2018-01-15T08:22:10.482Z,33.80
2018-01-15T08:23:17.190Z,36.70
2018-01-15T08:24:23.904Z,34.30
2018-01-15T08:25:30.659Z,33.80
2018-01-15T08:26:37.332Z,35.60
2018-01-15T08:27:44.021Z,36.50
2018-01-15T08:28:50.799Z,34.00
2018-01-15T08:29:57.575Z,36.90
2018-01-15T08:31:04.316Z,37.60
2018-01-15T08:32:11.048Z,37.60
2018-01-15T08:33:17.744Z,38.30
2018-01-15T08:34:24.508Z,31.10
2018-01-15T08:35:31.340Z,34.30
2018-01-15T08:36:38.082Z,37.40
2018-01-15T08:37:44.826Z,36.50
2018-01-15T08:38:51.523Z,42.50
2018-01-15T08:39:58.248Z,37.50
2018-01-15T08:41:05.234Z,36.60
2018-01-15T08:42:12.048Z,32.90
2018-01-15T08:43:19.605Z,35.00
2018-01-15T08:44:25.872Z,39.90
2018-01-15T08:45:32.929Z,31.60
2018-01-15T08:46:39.755Z,35.40
2018-01-15T08:47:46.596Z,36.60
2018-01-15T08:48:53.300Z,34.40
2018-01-15T08:50:00.004Z,34.60
2018-01-15T08:51:06.813Z,35.90
2018-01-15T08:52:13.504Z,33.40
2018-01-15T08:53:20.192Z,32.90
2018-01-15T08:54:27.029Z,35.00
2018-01-15T08:55:33.707Z,33.50
2018-01-15T08:56:40.411Z,35.20
2018-01-15T08:57:47.112Z,33.60
2018-01-15T08:58:53.844Z,34.70
2018-01-15T09:00:00.571Z,37.90
2018-01-15T09:01:07.463Z,34.70
2018-01-15T09:02:14.151Z,38.80
2018-01-15T09:03:20.854Z,34.60
2018-01-15T09:04:27.887Z,35.50
2018-01-15T09:05:34.615Z,39.70
2018-01-15T09:06:41.351Z,38.40
2018-01-15T09:07:49.115Z,36.10
2018-01-15T09:08:55.232Z,36.10
2018-01-15T09:10:01.953Z,37.40
2018-01-15T09:11:08.753Z,34.80
2018-01-15T09:12:15.476Z,39.90
2018-01-15T09:13:22.375Z,36.20
2018-01-15T09:14:29.055Z,38.00
2018-01-15T09:15:35.993Z,35.60
2018-01-15T09:16:42.772Z,35.90
2018-01-15T09:17:49.887Z,38.30
2018-01-15T09:18:56.712Z,35.00
2018-01-15T09:20:04.006Z,32.60
2018-01-15T09:21:10.813Z,36.90
2018-01-15T09:22:17.835Z,37.90
2018-01-15T09:23:24.898Z,33.20
2018-01-15T09:24:31.757Z,37.40
2018-01-15T09:25:38.811Z,36.40
2018-01-15T09:26:45.244Z,39.60
2018-01-15T09:27:52.062Z,33.60
2018-01-15T09:28:58.836Z,33.70
2018-01-15T09:30:05.538Z,35.40
2018-01-15T09:31:12.364Z,35.60
2018-01-15T09:32:19.058Z,39.60
2018-01-15T09:33:25.900Z,35.10
2018-01-15T09:34:32.631Z,34.50
2018-01-15T09:35:39.380Z,33.00
2018-01-15T09:36:46.131Z,33.60
2018-01-15T09:37:53.020Z,35.20
2018-01-15T09:38:59.724Z,38.00
2018-01-15T09:40:06.635Z,36.00
2018-01-15T09:41:13.660Z,32.40
2018-01-15T09:42:20.386Z,32.00
2018-01-15T09:44:34.213Z,33.80
2018-01-15T09:45:41.185Z,31.30
2018-01-15T09:46:47.964Z,42.10
2018-01-15T09:47:54.779Z,33.70
2018-01-15T09:49:01.666Z,35.90
2018-01-15T09:50:09.676Z,38.80
2018-01-15T09:51:15.583Z,30.50
2018-01-15T09:52:22.721Z,30.40
2018-01-15T09:53:29.994Z,33.00
2018-01-15T09:54:36.641Z,38.30
2018-01-15T09:55:44.237Z,34.90
2018-01-15T09:56:50.467Z,32.10
2018-01-15T09:57:57.717Z,32.90
2018-01-15T09:59:05.707Z,37.70
2018-01-15T10:00:10.849Z,33.00
2018-01-15T10:01:18.474Z,33.20
2018-01-15T10:02:24.721Z,34.00
2018-01-15T10:03:31.141Z,36.50
2018-01-15T10:04:38.087Z,36.00
2018-01-15T10:05:44.881Z,34.00
2018-01-15T10:06:51.723Z,39.70
2018-01-15T10:07:58.514Z,36.70
2018-01-15T10:09:05.333Z,36.50
2018-01-15T10:10:12.197Z,36.60
2018-01-15T10:11:19.088Z,33.00
2018-01-15T10:12:25.851Z,34.20
2018-01-15T10:13:32.820Z,32.70
2018-01-15T10:14:39.778Z,37.70
2018-01-15T10:15:47.784Z,33.80
2018-01-15T10:16:53.684Z,37.00
2018-01-15T10:18:00.481Z,41.60
2018-01-15T10:19:07.259Z,34.20
2018-01-15T10:20:14.207Z,34.40
2018-01-15T10:21:21.250Z,37.10
2018-01-15T10:22:28.088Z,33.80
2018-01-15T10:23:36.320Z,35.30
2018-01-15T10:24:41.862Z,31.70
2018-01-15T10:25:48.642Z,33.40
2018-01-15T10:26:55.565Z,32.30
2018-01-15T10:28:02.433Z,34.10
2018-01-15T10:29:09.335Z,34.60
2018-01-15T10:30:16.198Z,33.80
2018-01-15T10:31:22.956Z,33.00
2018-01-15T10:32:29.780Z,34.20
2018-01-15T10:33:36.671Z,30.90
2018-01-15T10:34:43.435Z,30.40
2018-01-15T10:35:50.380Z,32.70
2018-01-15T10:36:57.439Z,30.70
2018-01-15T10:38:05.697Z,30.20
2018-01-15T10:39:11.272Z,28.50
2018-01-15T10:40:18.096Z,25.60
2018-01-15T10:41:24.895Z,26.20
2018-01-15T10:42:31.732Z,27.80
2018-01-15T10:43:38.497Z,26.70
2018-01-15T10:44:48.725Z,25.00
2018-01-15T10:45:53.044Z,28.00
2018-01-15T10:46:58.895Z,27.00
2018-01-15T10:48:05.612Z,26.30
2018-01-15T10:49:12.333Z,26.20
2018-01-15T10:50:19.078Z,26.00
2018-01-15T10:51:26.017Z,29.60
2018-01-15T10:52:32.724Z,28.10
2018-01-15T10:53:39.456Z,26.60
2018-01-15T10:54:46.140Z,25.90
2018-01-15T10:55:52.888Z,25.40
2018-01-15T10:56:59.627Z,24.30
2018-01-15T10:58:06.433Z,25.40
2018-01-15T10:59:13.128Z,23.00
2018-01-15T11:00:19.820Z,23.90
2018-01-15T11:01:26.595Z,23.00
2018-01-15T11:02:33.296Z,22.00
2018-01-15T11:03:40.143Z,25.40
2018-01-15T11:04:46.913Z,20.20
2018-01-15T11:05:53.613Z,23.70
2018-01-15T11:07:00.340Z,23.80
2018-01-15T11:08:07.296Z,26.60
2018-01-15T11:09:14.023Z,22.80
2018-01-15T11:10:20.756Z,24.40
2018-01-15T11:11:27.796Z,20.20
2018-01-15T11:12:34.487Z,20.90
2018-01-15T11:13:41.208Z,22.40
2018-01-15T11:14:48.041Z,22.80
2018-01-15T11:15:54.826Z,21.80
2018-01-15T11:17:01.619Z,21.00
2018-01-15T11:18:08.335Z,20.60
2018-01-15T11:19:15.210Z,19.80
2018-01-15T11:20:21.999Z,18.90
2018-01-15T11:21:28.680Z,21.20
2018-01-15T11:22:35.787Z,19.80
2018-01-15T11:23:42.495Z,18.70
2018-01-15T11:24:49.187Z,20.10
2018-01-15T11:25:55.916Z,18.60
2018-01-15T11:27:02.678Z,20.30
2018-01-15T11:28:09.372Z,16.20
2018-01-15T11:29:16.083Z,18.90
2018-01-15T11:30:22.767Z,18.30
2018-01-15T11:31:29.632Z,18.10
2018-01-15T11:32:36.457Z,17.40
2018-01-15T11:33:43.219Z,18.90
2018-01-15T11:34:49.981Z,18.20
2018-01-15T11:35:56.736Z,16.80
2018-01-15T11:37:03.556Z,18.50
2018-01-15T11:38:10.379Z,18.40
2018-01-15T11:39:17.096Z,16.60
2018-01-15T11:40:23.838Z,18.00
2018-01-15T11:41:30.658Z,16.10
2018-01-15T11:42:37.457Z,14.10
2018-01-15T11:43:44.211Z,17.10
2018-01-15T11:44:50.918Z,17.70
2018-01-15T11:45:57.788Z,15.40
2018-01-15T11:47:04.513Z,16.30
2018-01-15T11:48:11.264Z,17.30
2018-01-15T11:49:18.021Z,14.10
2018-01-15T11:50:24.739Z,13.60
2018-01-15T11:51:31.581Z,16.40
2018-01-15T11:52:38.301Z,13.30
2018-01-15T11:53:45.068Z,15.50
2018-01-15T11:54:51.796Z,13.30
2018-01-15T11:55:58.683Z,16.20
2018-01-15T11:57:05.407Z,12.40
2018-01-15T11:58:12.130Z,16.20
2018-01-15T11:59:18.855Z,16.20
2018-01-15T12:00:25.582Z,13.90
2018-01-15T12:01:32.248Z,16.70
2018-01-15T12:02:39.071Z,16.90
2018-01-15T12:03:45.771Z,16.30
2018-01-15T12:04:52.464Z,12.90
2018-01-15T12:05:59.200Z,11.90
2018-01-15T12:07:05.905Z,12.70
2018-01-15T12:08:12.667Z,15.00
2018-01-15T12:09:19.549Z,12.20
2018-01-15T12:10:26.332Z,15.40
2018-01-15T12:11:33.088Z,11.90
2018-01-15T12:12:39.795Z,14.50
2018-01-15T12:13:46.581Z,14.20
2018-01-15T12:14:53.391Z,12.70
2018-01-15T12:16:00.104Z,12.90
2018-01-15T12:17:06.843Z,13.50
2018-01-15T12:18:13.580Z,12.20
2018-01-15T12:19:20.415Z,14.90
2018-01-15T12:20:27.134Z,13.60
2018-01-15T12:21:33.901Z,13.60
2018-01-15T12:22:40.569Z,13.40
2018-01-15T12:23:47.266Z,14.10
2018-01-15T12:24:53.999Z,11.80
2018-01-15T12:26:00.838Z,10.90
2018-01-15T12:27:07.563Z,10.30
2018-01-15T12:28:14.301Z,12.30
2018-01-15T12:29:21.033Z,10.90
2018-01-15T12:30:27.924Z,9.90
2018-01-15T12:31:34.626Z,9.50
2018-01-15T12:32:41.325Z,12.60
2018-01-15T12:33:48.028Z,11.00
2018-01-15T12:34:54.729Z,14.20
2018-01-15T12:36:01.462Z,11.00
2018-01-15T12:37:08.183Z,10.50
2018-01-15T12:38:14.952Z,10.50
2018-01-15T12:39:21.639Z,11.20
2018-01-15T12:40:28.339Z,10.90
2018-01-15T12:41:35.060Z,11.80
2018-01-15T12:42:41.776Z,12.30
2018-01-15T12:43:48.515Z,9.40
2018-01-15T12:44:55.241Z,11.20
2018-01-15T12:46:02.048Z,10.60
2018-01-15T12:47:08.791Z,11.40
2018-01-15T12:48:15.543Z,9.90
2018-01-15T12:49:22.352Z,12.60
2018-01-15T12:50:29.132Z,9.30
2018-01-15T12:51:36.088Z,9.80
2018-01-15T12:52:43.016Z,10.20
2018-01-15T12:53:49.828Z,8.90
2018-01-15T12:54:56.912Z,7.60
2018-01-15T12:56:04.031Z,8.50
2018-01-15T12:57:10.840Z,9.20
2018-01-15T12:58:17.551Z,9.10
2018-01-15T12:59:24.620Z,9.60
2018-01-15T13:00:31.359Z,10.40
2018-01-15T13:01:38.267Z,10.20
2018-01-15T13:02:45.334Z,9.90
2018-01-15T13:03:51.974Z,7.40
2018-01-15T13:04:58.668Z,8.00
2018-01-15T13:06:05.384Z,7.20
2018-01-15T13:07:12.154Z,9.20
2018-01-15T13:08:19.092Z,6.90
2018-01-15T13:09:25.920Z,7.20
2018-01-15T13:10:32.787Z,6.90
2018-01-15T13:11:39.612Z,7.50
2018-01-15T13:12:46.350Z,8.20
2018-01-15T13:13:52.986Z,7.90
2018-01-15T13:14:59.702Z,8.30
2018-01-15T13:16:06.407Z,6.70
2018-01-15T13:17:13.364Z,6.00
2018-01-15T13:18:20.064Z,6.40
2018-01-15T13:19:26.780Z,7.70
2018-01-15T13:20:33.616Z,5.20
2018-01-15T13:21:40.412Z,6.20
2018-01-15T13:22:47.173Z,6.80
2018-01-15T13:23:53.867Z,6.30
2018-01-15T13:25:00.599Z,5.80
2018-01-15T13:26:07.328Z,5.50
2018-01-15T13:27:14.184Z,8.30
2018-01-15T13:28:20.919Z,6.00
2018-01-15T13:29:27.707Z,6.40
2018-01-15T13:30:34.434Z,4.80
2018-01-15T13:31:41.220Z,6.40
2018-01-15T13:32:47.959Z,6.20
2018-01-15T13:33:54.667Z,4.90
2018-01-15T13:35:01.387Z,5.90
2018-01-15T13:36:08.099Z,5.80
2018-01-15T13:37:14.803Z,6.80
2018-01-15T13:38:21.524Z,4.80
2018-01-15T13:39:28.287Z,6.30
2018-01-15T13:40:34.964Z,5.20
2018-01-15T13:41:41.659Z,4.90
2018-01-15T13:42:48.360Z,5.00
2018-01-15T13:43:55.060Z,7.60
2018-01-15T13:45:01.740Z,5.80
2018-01-15T13:46:08.420Z,5.20
2018-01-15T13:47:15.105Z,4.40
2018-01-15T13:48:22.303Z,4.70
2018-01-15T13:49:29.097Z,5.30
2018-01-15T13:50:35.816Z,3.90
2018-01-15T13:51:42.569Z,4.30
2018-01-15T13:52:49.251Z,4.60
2018-01-15T13:53:55.967Z,6.10
2018-01-15T13:55:02.631Z,4.70
2018-01-15T13:56:09.307Z,6.10
2018-01-15T13:57:16.064Z,4.60
2018-01-15T13:58:22.763Z,4.20
2018-01-15T13:59:29.650Z,5.10
2018-01-15T14:00:36.321Z,3.50
2018-01-15T14:01:43.089Z,4.60
2018-01-15T14:02:49.759Z,4.10
2018-01-15T14:03:56.454Z,5.20
2018-01-15T14:05:03.143Z,4.70
2018-01-15T14:06:09.912Z,3.70
2018-01-15T14:07:16.646Z,4.10
2018-01-15T14:08:23.442Z,4.30
2018-01-15T14:09:30.283Z,5.10
2018-01-15T14:10:36.995Z,3.80
2018-01-15T14:11:43.730Z,4.00
2018-01-15T14:12:50.633Z,3.80
2018-01-15T14:13:57.497Z,4.00
2018-01-15T14:15:04.308Z,4.30
2018-01-15T14:16:11.051Z,4.20
2018-01-15T14:17:17.781Z,4.20
2018-01-15T14:18:24.521Z,3.50
2018-01-15T14:19:31.403Z,4.30
2018-01-15T14:20:38.220Z,5.00
2018-01-15T14:21:44.912Z,4.10
2018-01-15T14:22:51.692Z,4.70
2018-01-15T14:23:58.459Z,4.00